Time;durP1;ratioP1;P1;durP2;ratioP2;P2;SDS_P1;SDS_P2;PMS_P1;PMS_P2;Temp;Humidity;BMP_temperature;BMP_pressure;BME280_temperature;BME280_humidity;BME280_pressure;Samples;Min_cycle;Max_cycle;Signal;HPM_P1;HPM_P2
2021/12/15 00:00:18;;;;;;;51.10;27.50;;;7.00;99.90;;;;;;2097804;28;20029;-71
2021/12/15 00:01:19;;;;;;;49.47;26.73;;;7.00;99.90;;;;;;2097746;28;20025;-72
2021/12/15 00:02:22;;;;;;;46.58;24.90;;;7.00;99.90;;;;;;2097450;28;20100;-71
2021/12/15 00:03:24;;;;;;;42.28;24.00;;;7.00;99.90;;;;;;2097788;28;20399;-73
2021/12/15 00:04:24;;;;;;;45.47;24.85;;;7.00;99.90;;;;;;2097884;28;20024;-72
2021/12/15 00:05:27;;;;;;;43.78;24.83;;;7.00;99.90;;;;;;2097143;28;20071;-73
2021/12/15 00:06:28;;;;;;;42.63;24.15;;;7.00;99.90;;;;;;2089174;28;20036;-73
2021/12/15 00:07:29;;;;;;;44.15;24.17;;;7.10;99.90;;;;;;2097289;28;20127;-73
2021/12/15 00:08:30;;;;;;;41.50;23.48;;;7.00;99.90;;;;;;2096694;28;20032;-73
2021/12/15 00:09:31;;;;;;;42.35;23.42;;;7.10;99.90;;;;;;2097878;28;20517;-71
2021/12/15 00:10:31;;;;;;;38.22;22.10;;;7.10;99.90;;;;;;2097857;28;20024;-73
2021/12/15 00:11:36;;;;;;;43.03;23.25;;;7.10;99.90;;;;;;2097410;28;20031;-71
2021/12/15 00:12:37;;;;;;;41.33;23.90;;;7.10;99.90;;;;;;2097339;28;20513;-71
2021/12/15 00:13:40;;;;;;;40.65;23.30;;;7.10;99.90;;;;;;2080507;28;20022;-71
2021/12/15 00:14:42;;;;;;;39.47;22.45;;;7.10;99.90;;;;;;2089244;28;20187;-70
2021/12/15 00:15:45;;;;;;;41.88;24.00;;;7.10;99.90;;;;;;2097547;28;20123;-71
2021/12/15 00:16:47;;;;;;;41.33;22.95;;;7.10;99.90;;;;;;2097668;28;20069;-72
2021/12/15 00:17:49;;;;;;;40.20;22.45;;;7.10;99.90;;;;;;2088655;28;20632;-72
2021/12/15 00:18:50;;;;;;;37.47;21.75;;;7.10;99.90;;;;;;2097530;28;20060;-69
2021/12/15 00:19:51;;;;;;;36.53;21.65;;;7.10;99.90;;;;;;2097112;28;20040;-71
2021/12/15 00:20:52;;;;;;;36.58;20.95;;;7.10;99.90;;;;;;2097502;28;20058;-71
2021/12/15 00:21:54;;;;;;;37.30;21.05;;;7.10;99.90;;;;;;2098061;28;20563;-71
2021/12/15 00:22:55;;;;;;;35.15;20.38;;;7.10;99.90;;;;;;2097948;28;20286;-71
2021/12/15 00:23:57;;;;;;;35.22;20.75;;;7.10;99.90;;;;;;2097962;28;20520;-72
2021/12/15 00:24:57;;;;;;;35.47;20.85;;;7.10;99.90;;;;;;2100166;28;20035;-71
2021/12/15 00:25:58;;;;;;;38.22;21.98;;;7.00;99.90;;;;;;2100256;28;20040;-72
2021/12/15 00:26:59;;;;;;;38.60;21.52;;;7.10;99.90;;;;;;2100097;28;20025;-70
2021/12/15 00:28:00;;;;;;;36.50;21.50;;;7.00;99.90;;;;;;2100343;28;20028;-72
2021/12/15 00:29:02;;;;;;;36.90;20.85;;;7.10;99.90;;;;;;2091900;28;20037;-72
2021/12/15 00:30:06;;;;;;;36.20;21.50;;;7.00;99.90;;;;;;2091569;28;20088;-71
2021/12/15 00:31:07;;;;;;;35.47;20.38;;;7.00;99.90;;;;;;2092171;28;20232;-70
2021/12/15 00:32:09;;;;;;;36.83;20.25;;;7.00;99.90;;;;;;2098362;28;20025;-72
2021/12/15 00:33:10;;;;;;;35.28;20.38;;;7.00;99.90;;;;;;2098435;28;20030;-73
2021/12/15 00:34:11;;;;;;;35.65;20.85;;;7.00;99.90;;;;;;2089881;28;20025;-72
2021/12/15 00:35:12;;;;;;;34.58;20.23;;;7.00;99.90;;;;;;2089296;28;20516;-71
2021/12/15 00:36:14;;;;;;;34.28;20.33;;;7.00;99.90;;;;;;2097253;28;20043;-71
2021/12/15 00:37:15;;;;;;;34.03;20.02;;;7.00;99.90;;;;;;2088838;28;20127;-71
2021/12/15 00:38:16;;;;;;;37.35;20.60;;;7.00;99.90;;;;;;2088554;28;20028;-71
2021/12/15 00:39:20;;;;;;;36.00;20.40;;;7.00;99.90;;;;;;2097362;28;20029;-71
2021/12/15 00:40:24;;;;;;;35.85;20.52;;;7.00;99.90;;;;;;2096703;28;20646;-71
2021/12/15 00:41:26;;;;;;;35.25;20.02;;;7.00;99.90;;;;;;2088818;28;20024;-71
2021/12/15 00:42:29;;;;;;;35.22;20.45;;;7.00;99.90;;;;;;2096942;28;20028;-71
2021/12/15 00:43:30;;;;;;;34.85;19.90;;;7.00;99.90;;;;;;2096722;28;20021;-71
2021/12/15 00:44:31;;;;;;;35.33;20.35;;;7.00;99.90;;;;;;2088322;28;20029;-71
2021/12/15 00:45:31;;;;;;;34.25;19.80;;;7.00;99.90;;;;;;2080192;28;20552;-69
2021/12/15 00:46:33;;;;;;;35.40;20.30;;;6.90;99.90;;;;;;2080092;28;20034;-69
2021/12/15 00:47:34;;;;;;;33.75;19.23;;;7.00;99.90;;;;;;2096741;28;20451;-69
2021/12/15 00:48:38;;;;;;;33.35;19.70;;;7.00;99.90;;;;;;2096755;28;20939;-69
2021/12/15 00:49:40;;;;;;;34.25;19.48;;;6.90;99.90;;;;;;2096668;28;20070;-69
2021/12/15 00:50:43;;;;;;;33.88;20.35;;;6.90;99.90;;;;;;2096944;28;20181;-69
2021/12/15 00:51:44;;;;;;;30.70;18.90;;;6.90;99.90;;;;;;2096600;28;20138;-69
2021/12/15 00:52:47;;;;;;;32.47;19.35;;;6.90;99.90;;;;;;2088844;28;20024;-68
2021/12/15 00:53:48;;;;;;;33.75;19.13;;;6.90;99.90;;;;;;2096860;28;20070;-69
2021/12/15 00:54:48;;;;;;;33.83;19.75;;;6.90;99.90;;;;;;2088720;28;20033;-71
2021/12/15 00:55:49;;;;;;;33.45;19.27;;;6.90;99.90;;;;;;2097603;28;20099;-68
2021/12/15 00:56:55;;;;;;;36.35;20.67;;;6.90;99.90;;;;;;2097045;28;20127;-69
2021/12/15 00:57:59;;;;;;;36.80;20.73;;;6.90;99.90;;;;;;2096589;28;20020;-69
2021/12/15 00:59:00;;;;;;;36.90;21.10;;;6.90;99.90;;;;;;2096525;28;20510;-70
2021/12/15 01:00:02;;;;;;;34.28;19.60;;;6.90;99.90;;;;;;2096760;28;20037;-70
2021/12/15 01:01:04;;;;;;;35.85;20.38;;;6.90;99.90;;;;;;2097261;28;20070;-70
2021/12/15 01:02:07;;;;;;;34.88;20.17;;;6.90;99.90;;;;;;2096169;28;20495;-69
2021/12/15 01:03:08;;;;;;;36.33;20.38;;;6.90;99.90;;;;;;2096647;28;20036;-70
2021/12/15 01:04:13;;;;;;;34.97;20.13;;;6.90;99.90;;;;;;2097334;28;20024;-70
2021/12/15 01:05:15;;;;;;;35.08;20.60;;;6.90;99.90;;;;;;2096377;28;20021;-69
2021/12/15 01:06:19;;;;;;;36.10;20.63;;;6.90;99.90;;;;;;2088430;28;20079;-70
2021/12/15 01:07:20;;;;;;;34.65;20.00;;;6.90;99.90;;;;;;2088853;28;20025;-71
2021/12/15 01:08:28;;;;;;;37.05;20.48;;;6.90;99.90;;;;;;2096201;28;20384;-71
2021/12/15 01:09:35;;;;;;;35.75;20.35;;;6.90;99.90;;;;;;2088112;28;20424;-72
2021/12/15 01:10:51;;;;;;;34.85;20.13;;;6.90;99.90;;;;;;2089072;28;20025;-71
2021/12/15 01:12:10;;;;;;;35.20;19.88;;;6.90;99.90;;;;;;2090000;28;20036;-71
2021/12/15 01:19:47;;;;;;;35.58;20.40;;;6.90;99.90;;;;;;2097198;28;20033;-71
2021/12/15 01:19:58;;;;;;;34.45;20.55;;;6.80;99.90;;;;;;2096504;28;20111;-70
2021/12/15 01:20:59;;;;;;;36.10;20.75;;;6.90;99.90;;;;;;2088522;28;20107;-69
2021/12/15 01:22:00;;;;;;;35.75;21.42;;;6.80;99.90;;;;;;2096190;28;20369;-69
2021/12/15 01:23:08;;;;;;;35.55;19.95;;;6.80;99.90;;;;;;2096646;28;20039;-69
2021/12/15 01:24:09;;;;;;;33.80;20.85;;;6.90;99.90;;;;;;2089457;28;20052;-71
2021/12/15 01:25:26;;;;;;;37.13;22.27;;;6.80;99.90;;;;;;2096529;28;20024;-69
2021/12/15 01:26:27;;;;;;;37.67;22.02;;;6.80;99.90;;;;;;2097199;28;20025;-70
2021/12/15 01:27:28;;;;;;;35.85;21.30;;;6.80;99.90;;;;;;2096730;28;20040;-69
2021/12/15 01:28:30;;;;;;;37.20;20.92;;;6.80;99.90;;;;;;2087979;28;20021;-69
2021/12/15 01:29:31;;;;;;;35.80;21.13;;;6.80;99.90;;;;;;2096700;28;20083;-70
2021/12/15 01:30:35;;;;;;;33.65;19.90;;;6.80;99.90;;;;;;2097535;28;20050;-69
2021/12/15 01:31:36;;;;;;;36.28;20.80;;;6.80;99.90;;;;;;2096908;28;20418;-70
2021/12/15 01:32:37;;;;;;;34.13;20.50;;;6.80;99.90;;;;;;2097234;28;20020;-70
2021/12/15 01:33:39;;;;;;;34.25;19.98;;;6.80;99.90;;;;;;2096507;28;20039;-69
2021/12/15 01:34:40;;;;;;;35.58;20.73;;;6.90;99.90;;;;;;2096708;28;20174;-70
2021/12/15 01:35:45;;;;;;;42.38;25.63;;;6.90;99.90;;;;;;2097268;28;20074;-70
2021/12/15 01:36:46;;;;;;;39.97;24.65;;;6.80;99.90;;;;;;2096478;28;20520;-71
2021/12/15 01:37:49;;;;;;;43.67;24.83;;;6.80;99.90;;;;;;2087939;28;20120;-69
2021/12/15 01:38:50;;;;;;;40.92;24.30;;;6.80;99.90;;;;;;2088505;28;20025;-69
2021/12/15 01:39:54;;;;;;;42.47;24.98;;;6.80;99.90;;;;;;2096433;28;20032;-70
2021/12/15 01:40:57;;;;;;;40.95;24.52;;;6.80;99.90;;;;;;2080576;28;20029;-70
2021/12/15 01:41:58;;;;;;;40.78;23.75;;;6.80;99.90;;;;;;2088357;28;20033;-70
2021/12/15 01:43:02;;;;;;;37.63;22.90;;;6.80;99.90;;;;;;2088328;28;20068;-70
2021/12/15 01:48:04;;;;;;;37.20;21.52;;;6.80;99.90;;;;;;2096906;28;20028;-67
2021/12/15 01:49:16;;;;;;;38.97;22.48;;;6.80;99.90;;;;;;2096938;28;20031;-69
2021/12/15 01:50:16;;;;;;;39.88;21.92;;;6.80;99.90;;;;;;2096436;28;20032;-70
2021/12/15 01:51:18;;;;;;;40.75;23.30;;;6.80;99.90;;;;;;2088420;28;20021;-70
2021/12/15 01:52:24;;;;;;;40.80;22.75;;;6.80;99.90;;;;;;2096425;28;20021;-70
2021/12/15 01:53:26;;;;;;;37.65;22.42;;;6.80;99.90;;;;;;2097510;28;20444;-69
2021/12/15 01:54:29;;;;;;;36.58;22.08;;;6.80;99.90;;;;;;2096920;28;20032;-70
2021/12/15 01:55:30;;;;;;;37.80;22.42;;;6.80;99.90;;;;;;2095692;28;20043;-70
2021/12/15 01:56:31;;;;;;;37.85;22.10;;;6.80;99.90;;;;;;2087698;28;20037;-69
2021/12/15 01:57:34;;;;;;;35.97;21.85;;;6.80;99.90;;;;;;2096052;28;20036;-70
2021/12/15 01:58:35;;;;;;;37.75;22.13;;;6.80;99.90;;;;;;2087777;28;20060;-70
2021/12/15 01:59:37;;;;;;;36.15;21.75;;;6.80;99.90;;;;;;2087982;28;20064;-69
2021/12/15 02:00:46;;;;;;;38.65;22.02;;;6.80;99.90;;;;;;2096447;28;20833;-69
2021/12/15 02:01:47;;;;;;;37.35;21.85;;;6.80;99.90;;;;;;2096137;28;20039;-70
2021/12/15 02:02:50;;;;;;;40.05;22.88;;;6.80;99.90;;;;;;2096431;28;20032;-69
2021/12/15 02:03:51;;;;;;;39.35;22.77;;;6.80;99.90;;;;;;2096273;28;20111;-70
2021/12/15 02:04:54;;;;;;;41.45;23.85;;;6.80;99.90;;;;;;2096525;28;20028;-69
2021/12/15 02:05:55;;;;;;;40.97;22.98;;;6.80;99.90;;;;;;2096960;28;20364;-69
2021/12/15 02:06:57;;;;;;;43.28;24.63;;;6.80;99.90;;;;;;2096273;28;20106;-70
2021/12/15 02:08:00;;;;;;;40.55;23.67;;;6.80;99.90;;;;;;2095752;28;20036;-69
2021/12/15 02:09:01;;;;;;;42.95;24.35;;;6.80;99.90;;;;;;2096190;28;20052;-69
2021/12/15 02:10:05;;;;;;;39.67;23.38;;;6.80;99.90;;;;;;2088184;28;20090;-70
2021/12/15 02:11:08;;;;;;;43.30;25.38;;;6.80;99.90;;;;;;2096497;28;20066;-70
2021/12/15 02:12:10;;;;;;;44.65;27.38;;;6.80;99.90;;;;;;2096133;28;20029;-68
2021/12/15 02:13:17;;;;;;;45.47;25.63;;;6.80;99.90;;;;;;2096585;28;20025;-69
2021/12/15 02:14:17;;;;;;;41.47;24.85;;;6.70;99.90;;;;;;2096509;28;20024;-69
2021/12/15 02:15:26;;;;;;;44.03;25.20;;;6.80;99.90;;;;;;2088183;28;20396;-69
2021/12/15 02:16:29;;;;;;;41.67;24.92;;;6.70;99.90;;;;;;2096388;28;20081;-69
2021/12/15 02:17:30;;;;;;;40.72;24.75;;;6.80;99.90;;;;;;2088306;28;20025;-68
2021/12/15 02:18:34;;;;;;;38.22;23.23;;;6.80;99.90;;;;;;2096071;28;20017;-70
2021/12/15 02:19:36;;;;;;;43.42;24.75;;;6.80;99.90;;;;;;2096275;28;20557;-70
2021/12/15 02:20:40;;;;;;;41.28;23.77;;;6.80;99.90;;;;;;2096444;28;20021;-70
2021/12/15 02:21:42;;;;;;;41.25;23.27;;;6.80;99.90;;;;;;2095894;28;20095;-69
2021/12/15 02:22:44;;;;;;;38.10;23.08;;;6.80;99.90;;;;;;2096414;28;20111;-69
2021/12/15 02:23:51;;;;;;;37.50;22.60;;;6.80;99.90;;;;;;2087911;28;20024;-68
2021/12/15 02:24:53;;;;;;;40.95;23.58;;;6.80;99.90;;;;;;2088199;28;20779;-68
2021/12/15 02:25:54;;;;;;;37.90;22.98;;;6.80;99.90;;;;;;2080040;28;20089;-70
2021/12/15 02:26:59;;;;;;;38.78;22.98;;;6.70;99.90;;;;;;2096492;28;20511;-70
2021/12/15 02:28:02;;;;;;;37.50;22.95;;;6.70;99.90;;;;;;2095916;28;20048;-69
2021/12/15 02:29:06;;;;;;;36.70;22.40;;;6.80;99.90;;;;;;2096409;28;20025;-70
2021/12/15 02:31:40;;;;;;;37.22;22.35;;;6.80;99.90;;;;;;2090509;28;20029;-68
2021/12/15 02:33:00;;;;;;;36.38;22.48;;;6.70;99.90;;;;;;2089710;28;20021;-68
2021/12/15 02:38:02;;;;;;;41.92;24.80;;;6.80;99.90;;;;;;2097452;28;20411;-69
2021/12/15 02:39:06;;;;;;;39.72;24.63;;;6.80;99.90;;;;;;2089581;28;20025;-68
2021/12/15 02:40:11;;;;;;;39.03;23.98;;;6.70;99.90;;;;;;2089628;28;20025;-70
2021/12/15 02:41:20;;;;;;;36.60;23.17;;;6.70;99.90;;;;;;2082648;28;20033;-69
2021/12/15 02:42:34;;;;;;;38.03;23.70;;;6.70;99.90;;;;;;2090656;28;20044;-70
2021/12/15 02:43:35;;;;;;;40.28;23.17;;;6.70;99.90;;;;;;2091455;28;20088;-69
2021/12/15 02:44:41;;;;;;;38.22;23.38;;;6.80;99.90;;;;;;2097785;28;20142;-69
2021/12/15 02:45:42;;;;;;;39.00;23.05;;;6.80;99.90;;;;;;2098376;28;20028;-71
2021/12/15 02:46:44;;;;;;;37.10;22.85;;;6.80;99.90;;;;;;2097738;28;20120;-72
2021/12/15 02:47:46;;;;;;;35.55;21.75;;;6.80;99.90;;;;;;2097152;28;20036;-72
2021/12/15 02:48:47;;;;;;;39.55;23.05;;;6.80;99.90;;;;;;2098293;28;20009;-72
2021/12/15 02:49:50;;;;;;;35.47;21.08;;;6.80;99.90;;;;;;2098126;28;20038;-72
2021/12/15 02:50:51;;;;;;;36.50;20.08;;;6.80;99.90;;;;;;2098401;28;20130;-72
2021/12/15 02:51:52;;;;;;;33.95;19.42;;;6.80;99.90;;;;;;2098055;28;20021;-70
2021/12/15 02:52:54;;;;;;;31.58;18.70;;;6.80;99.90;;;;;;2098341;28;20024;-72
2021/12/15 02:53:57;;;;;;;32.15;18.75;;;6.90;99.90;;;;;;2098257;28;20031;-72
2021/12/15 02:54:58;;;;;;;29.65;17.58;;;6.90;99.90;;;;;;2097757;28;20159;-73
2021/12/15 02:55:59;;;;;;;29.33;17.83;;;6.90;99.90;;;;;;2097661;28;20073;-72
2021/12/15 02:57:06;;;;;;;27.95;17.25;;;6.90;99.90;;;;;;2098258;28;20384;-72
2021/12/15 02:58:07;;;;;;;29.02;17.25;;;6.90;99.90;;;;;;2097825;28;20036;-72
2021/12/15 02:59:10;;;;;;;28.92;17.08;;;7.00;99.90;;;;;;2098313;28;20032;-72
2021/12/15 03:00:19;;;;;;;26.80;16.40;;;7.00;99.90;;;;;;2097711;28;20029;-72
2021/12/15 03:01:55;;;;;;;26.95;15.93;;;7.00;99.90;;;;;;2097648;28;20396;-71
2021/12/15 03:05:20;;;;;;;26.95;16.40;;;7.00;99.90;;;;;;2099934;28;20393;-72
2021/12/15 03:06:31;;;;;;;28.08;16.73;;;7.00;99.90;;;;;;2100717;28;20024;-72
2021/12/15 03:07:44;;;;;;;26.38;16.33;;;7.00;99.90;;;;;;2101139;28;20518;-71
2021/12/15 03:08:53;;;;;;;27.08;16.05;;;7.00;99.90;;;;;;2100038;28;20096;-72
2021/12/15 03:16:22;;;;;;;25.80;15.75;;;7.10;99.90;;;;;;2097562;28;20542;-72
2021/12/15 03:17:23;;;;;;;25.38;15.68;;;7.00;99.90;;;;;;2097426;28;20035;-71
2021/12/15 03:18:26;;;;;;;22.98;14.60;;;7.00;99.90;;;;;;2097467;28;20035;-72
2021/12/15 03:19:27;;;;;;;23.40;14.63;;;7.10;99.90;;;;;;2098211;28;20123;-72
2021/12/15 03:20:31;;;;;;;25.50;15.73;;;7.00;99.90;;;;;;2098121;28;20021;-72
2021/12/15 03:21:32;;;;;;;23.83;14.90;;;7.00;99.90;;;;;;2097605;28;20108;-72
2021/12/15 03:22:33;;;;;;;25.98;16.15;;;7.00;99.90;;;;;;2098103;28;20090;-70
2021/12/15 03:23:44;;;;;;;23.52;14.68;;;7.00;99.90;;;;;;2097507;28;20530;-72
2021/12/15 03:24:45;;;;;;;24.45;14.35;;;7.00;99.90;;;;;;2097610;28;20020;-71
2021/12/15 03:25:46;;;;;;;21.75;13.80;;;7.00;99.90;;;;;;2097983;28;20422;-73
2021/12/15 03:27:05;;;;;;;23.00;14.25;;;7.00;99.90;;;;;;2097851;28;20078;-72
2021/12/15 03:33:35;;;;;;;21.63;13.10;;;7.00;99.90;;;;;;2098080;28;20475;-71
2021/12/15 03:35:00;;;;;;;20.75;13.02;;;7.00;99.90;;;;;;2097894;28;20033;-72
2021/12/15 03:36:11;;;;;;;19.00;12.25;;;7.00;99.90;;;;;;2097169;28;20036;-72
2021/12/15 03:37:23;;;;;;;19.67;12.43;;;7.00;99.90;;;;;;2097504;28;20108;-72
2021/12/15 03:38:25;;;;;;;19.10;12.40;;;7.00;99.90;;;;;;2097591;28;20476;-72
2021/12/15 03:39:43;;;;;;;19.83;12.30;;;7.00;99.90;;;;;;2097728;28;20107;-72
2021/12/15 03:40:43;;;;;;;22.13;13.65;;;7.00;99.90;;;;;;2097307;28;20064;-71
2021/12/15 03:41:44;;;;;;;21.08;13.05;;;7.00;99.90;;;;;;2097034;28;20028;-72
2021/12/15 03:42:54;;;;;;;21.48;13.48;;;7.00;99.90;;;;;;2088922;28;20047;-72
2021/12/15 03:43:55;;;;;;;21.10;13.23;;;7.00;99.90;;;;;;2097345;28;20028;-72
2021/12/15 03:44:58;;;;;;;20.80;13.00;;;7.00;99.90;;;;;;2097724;28;20051;-72
2021/12/15 03:46:02;;;;;;;22.08;13.65;;;7.10;99.90;;;;;;2097806;28;20020;-72
2021/12/15 03:47:06;;;;;;;21.50;13.55;;;7.00;99.90;;;;;;2096937;28;20036;-73
2021/12/15 03:48:13;;;;;;;21.20;13.15;;;7.10;99.90;;;;;;2096750;28;20035;-73
2021/12/15 03:49:14;;;;;;;21.70;13.55;;;7.10;99.90;;;;;;2097347;28;20032;-72
2021/12/15 03:50:18;;;;;;;21.77;13.18;;;7.10;99.90;;;;;;2097841;28;20024;-73
2021/12/15 03:51:18;;;;;;;22.70;13.52;;;7.10;99.90;;;;;;2097679;28;20025;-73
2021/12/15 03:52:19;;;;;;;21.10;12.98;;;7.10;99.90;;;;;;2097495;28;20096;-72
2021/12/15 03:53:20;;;;;;;20.17;12.77;;;7.10;99.90;;;;;;2097215;28;20036;-73
2021/12/15 03:54:21;;;;;;;23.00;13.40;;;7.10;99.90;;;;;;2097209;28;20025;-73
2021/12/15 03:55:26;;;;;;;19.77;12.70;;;7.10;99.90;;;;;;2097769;28;20575;-72
2021/12/15 03:56:27;;;;;;;19.98;12.18;;;7.10;99.90;;;;;;2097838;28;20056;-72
2021/12/15 03:57:28;;;;;;;19.92;12.45;;;7.10;99.90;;;;;;2097171;28;20425;-72
2021/12/15 03:58:29;;;;;;;18.60;11.93;;;7.10;99.90;;;;;;2096654;28;20096;-72
2021/12/15 03:59:32;;;;;;;19.10;12.00;;;7.10;99.90;;;;;;2097806;28;20697;-73
2021/12/15 04:00:33;;;;;;;21.33;12.68;;;7.10;99.90;;;;;;2096844;28;20665;-72
2021/12/15 04:01:35;;;;;;;18.95;12.27;;;7.10;99.90;;;;;;2096752;28;20384;-71
2021/12/15 04:02:36;;;;;;;18.63;12.13;;;7.10;99.90;;;;;;2097730;28;20576;-72
2021/12/15 04:03:40;;;;;;;19.15;12.20;;;7.10;99.90;;;;;;2097574;28;20115;-71
2021/12/15 04:04:42;;;;;;;20.08;12.10;;;7.10;99.90;;;;;;2097604;28;20032;-71
2021/12/15 04:05:43;;;;;;;20.35;12.18;;;7.10;99.90;;;;;;2097592;28;20482;-72
2021/12/15 04:06:44;;;;;;;18.30;11.70;;;7.10;99.90;;;;;;2097595;28;20029;-72
2021/12/15 04:07:46;;;;;;;19.52;12.05;;;7.10;99.90;;;;;;2097177;28;20016;-71
2021/12/15 04:08:47;;;;;;;19.40;12.02;;;7.10;99.90;;;;;;2097620;28;20472;-72
2021/12/15 04:09:50;;;;;;;18.88;11.90;;;7.10;99.90;;;;;;2097531;28;20024;-72
2021/12/15 04:10:53;;;;;;;19.63;12.48;;;7.10;99.90;;;;;;2096924;28;20026;-72
2021/12/15 04:11:55;;;;;;;18.80;12.05;;;7.10;99.90;;;;;;2096838;28;20020;-68
2021/12/15 04:12:55;;;;;;;18.08;11.70;;;7.10;99.90;;;;;;2097763;28;20059;-68
2021/12/15 04:14:00;;;;;;;20.00;12.00;;;7.10;99.90;;;;;;2098009;28;20040;-69
2021/12/15 04:15:21;;;;;;;17.98;11.50;;;7.10;99.90;;;;;;2097813;28;20620;-70
2021/12/15 04:16:45;;;;;;;18.48;11.55;;;7.10;99.90;;;;;;2097401;28;20036;-69
2021/12/15 04:17:42;;;;;;;19.25;11.48;;;7.10;99.90;;;;;;2096684;28;20048;-69
2021/12/15 04:18:43;;;;;;;17.83;10.57;;;7.10;99.90;;;;;;2097842;28;20035;-70
2021/12/15 04:19:44;;;;;;;17.75;11.15;;;7.10;99.90;;;;;;2097864;28;20020;-69
2021/12/15 04:20:45;;;;;;;16.45;10.45;;;7.10;99.90;;;;;;2097431;28;20040;-69
2021/12/15 04:21:47;;;;;;;16.83;11.15;;;7.10;99.90;;;;;;2096984;28;20498;-68
2021/12/15 04:22:49;;;;;;;16.67;10.82;;;7.10;99.90;;;;;;2097099;28;20033;-70
2021/12/15 04:23:54;;;;;;;18.00;11.48;;;7.10;99.90;;;;;;2097131;28;20025;-68
2021/12/15 04:24:57;;;;;;;17.77;10.95;;;7.10;99.90;;;;;;2097487;28;20554;-69
2021/12/15 04:25:59;;;;;;;16.55;10.15;;;7.10;99.90;;;;;;2097116;28;20404;-69
2021/12/15 04:27:01;;;;;;;16.98;10.90;;;7.10;99.90;;;;;;2097849;28;20119;-68
2021/12/15 04:28:12;;;;;;;15.73;10.45;;;7.10;99.90;;;;;;2097528;28;20529;-70
2021/12/15 04:29:13;;;;;;;16.27;10.07;;;7.10;99.90;;;;;;2098006;28;20650;-69
2021/12/15 04:30:14;;;;;;;16.88;10.35;;;7.10;99.90;;;;;;2097867;28;20024;-68
2021/12/15 04:31:22;;;;;;;16.55;10.65;;;7.10;99.90;;;;;;2097091;28;20047;-69
2021/12/15 04:32:40;;;;;;;17.02;10.93;;;7.10;99.90;;;;;;2089492;28;20037;-68
2021/12/15 04:33:50;;;;;;;16.98;11.00;;;7.10;99.90;;;;;;2091393;28;20096;-68
2021/12/15 04:34:51;;;;;;;15.93;10.25;;;7.10;99.90;;;;;;2097140;28;20031;-72
2021/12/15 04:35:54;;;;;;;16.15;10.02;;;7.10;99.90;;;;;;2096663;28;20042;-69
2021/12/15 04:36:55;;;;;;;14.93;10.05;;;7.10;99.90;;;;;;2096859;28;20111;-70
2021/12/15 04:37:56;;;;;;;15.52;10.05;;;7.10;99.90;;;;;;2097228;28;20025;-70
2021/12/15 04:38:58;;;;;;;14.85;9.57;;;7.10;99.90;;;;;;2096850;28;20059;-68
2021/12/15 04:39:59;;;;;;;15.35;9.80;;;7.10;99.90;;;;;;2096953;28;20033;-70
2021/12/15 04:41:03;;;;;;;16.02;9.98;;;7.10;99.90;;;;;;2097530;28;20065;-70
2021/12/15 04:42:06;;;;;;;16.05;10.18;;;7.20;99.90;;;;;;2097314;28;20056;-68
2021/12/15 04:43:07;;;;;;;14.60;9.65;;;7.10;99.90;;;;;;2088444;28;20028;-69
2021/12/15 04:44:11;;;;;;;14.43;9.02;;;7.10;99.90;;;;;;2088772;28;20029;-70
2021/12/15 04:45:16;;;;;;;14.98;9.40;;;7.20;99.90;;;;;;2097409;28;20399;-70
2021/12/15 04:46:16;;;;;;;13.35;8.88;;;7.20;99.90;;;;;;2097600;28;20074;-70
2021/12/15 04:47:17;;;;;;;15.50;9.45;;;7.20;99.90;;;;;;2096872;28;20079;-69
2021/12/15 04:48:18;;;;;;;17.20;10.68;;;7.20;99.90;;;;;;2096424;28;20024;-71
2021/12/15 04:49:19;;;;;;;15.63;10.23;;;7.20;99.90;;;;;;2096630;28;20526;-70
2021/12/15 04:50:25;;;;;;;15.10;9.73;;;7.20;99.90;;;;;;2088543;28;20035;-71
2021/12/15 04:51:27;;;;;;;15.18;10.45;;;7.20;99.90;;;;;;2096447;28;20024;-72
2021/12/15 04:52:30;;;;;;;16.20;10.63;;;7.20;99.90;;;;;;2088424;28;20025;-71
2021/12/15 04:53:31;;;;;;;15.70;10.10;;;7.10;99.90;;;;;;2080935;28;20033;-70
2021/12/15 04:54:33;;;;;;;16.10;9.98;;;7.10;99.90;;;;;;2096706;28;20048;-74
2021/12/15 04:55:36;;;;;;;15.85;10.10;;;7.10;99.90;;;;;;2097214;28;20028;-70
2021/12/15 04:56:37;;;;;;;14.88;9.43;;;7.20;99.90;;;;;;2096681;28;20027;-69
2021/12/15 04:57:38;;;;;;;14.50;10.10;;;7.20;99.90;;;;;;2096215;28;20074;-70
2021/12/15 04:58:38;;;;;;;15.00;10.18;;;7.20;99.90;;;;;;2088281;28;20745;-71
2021/12/15 04:59:40;;;;;;;15.43;9.77;;;7.20;99.90;;;;;;2088523;28;20064;-70
2021/12/15 05:00:53;;;;;;;15.52;9.88;;;7.20;99.90;;;;;;2095524;28;20028;-70
2021/12/15 05:01:54;;;;;;;14.77;9.68;;;7.20;99.90;;;;;;2089640;28;20039;-70
2021/12/15 05:02:57;;;;;;;16.63;9.93;;;7.20;99.90;;;;;;2096576;28;20024;-70
2021/12/15 05:03:58;;;;;;;15.68;9.75;;;7.20;99.90;;;;;;2096718;28;20364;-70
2021/12/15 05:04:59;;;;;;;14.13;9.88;;;7.20;99.90;;;;;;2096696;28;20135;-70
2021/12/15 05:06:00;;;;;;;14.48;9.65;;;7.20;99.90;;;;;;2097316;28;20032;-69
2021/12/15 05:07:02;;;;;;;14.82;9.50;;;7.20;99.90;;;;;;2097357;28;20602;-70
2021/12/15 05:08:03;;;;;;;14.02;9.73;;;7.20;99.90;;;;;;2096691;28;20025;-68
2021/12/15 05:09:05;;;;;;;15.70;10.35;;;7.20;99.90;;;;;;2096468;28;20029;-70
2021/12/15 05:10:08;;;;;;;15.23;9.82;;;7.20;99.90;;;;;;2096677;28;20025;-70
2021/12/15 05:11:11;;;;;;;15.75;10.35;;;7.20;99.90;;;;;;2096519;28;20427;-69
2021/12/15 05:12:11;;;;;;;15.77;10.35;;;7.20;99.90;;;;;;2096258;28;20107;-70
2021/12/15 05:13:13;;;;;;;17.35;11.13;;;7.20;99.90;;;;;;2096679;28;20032;-70
2021/12/15 05:14:14;;;;;;;17.08;10.77;;;7.10;99.90;;;;;;2096562;28;20025;-72
2021/12/15 05:15:16;;;;;;;16.63;10.68;;;7.10;99.90;;;;;;2096438;28;20021;-72
2021/12/15 05:16:17;;;;;;;13.93;9.73;;;7.10;99.90;;;;;;2096381;28;20025;-71
2021/12/15 05:17:18;;;;;;;16.38;10.85;;;7.10;99.90;;;;;;2096643;28;20020;-72
2021/12/15 05:18:19;;;;;;;16.67;10.50;;;7.10;99.90;;;;;;2096613;28;20028;-72
2021/12/15 05:19:21;;;;;;;15.85;10.73;;;7.10;99.90;;;;;;2097331;28;20059;-74
2021/12/15 05:20:23;;;;;;;15.85;10.35;;;7.10;99.90;;;;;;2097282;28;20040;-72
2021/12/15 05:21:24;;;;;;;15.77;10.77;;;7.10;99.90;;;;;;2096772;28;20036;-71
2021/12/15 05:22:25;;;;;;;14.80;10.07;;;7.10;99.90;;;;;;2096632;28;20787;-71
2021/12/15 05:23:30;;;;;;;15.90;10.32;;;7.20;99.90;;;;;;2096571;28;20025;-74
2021/12/15 05:24:31;;;;;;;14.80;9.88;;;7.10;99.90;;;;;;2096619;28;20035;-73
2021/12/15 05:25:33;;;;;;;16.65;10.50;;;7.20;99.90;;;;;;2097203;28;20028;-72
2021/12/15 05:26:34;;;;;;;15.13;10.13;;;7.10;99.90;;;;;;2097153;28;20498;-72
2021/12/15 05:27:37;;;;;;;17.35;10.75;;;7.20;99.90;;;;;;2097273;28;20645;-72
2021/12/15 05:28:39;;;;;;;16.30;10.38;;;7.10;99.90;;;;;;2097188;28;20020;-71
2021/12/15 05:29:41;;;;;;;16.90;10.88;;;7.20;99.90;;;;;;2097166;28;20079;-71
2021/12/15 05:30:42;;;;;;;17.00;10.93;;;7.10;99.90;;;;;;2097039;28;20021;-72
2021/12/15 05:31:43;;;;;;;16.92;10.85;;;7.10;99.90;;;;;;2096634;28;20387;-72
2021/12/15 05:32:44;;;;;;;16.23;10.48;;;7.10;99.90;;;;;;2097191;28;20020;-72
2021/12/15 05:33:45;;;;;;;15.40;10.18;;;7.10;99.90;;;;;;2097059;28;20470;-71
2021/12/15 05:34:48;;;;;;;15.15;10.45;;;7.10;99.90;;;;;;2096592;28;20044;-74
2021/12/15 05:35:50;;;;;;;16.10;10.38;;;7.10;99.90;;;;;;2096326;28;20052;-71
2021/12/15 05:36:52;;;;;;;15.50;9.75;;;7.10;99.90;;;;;;2097193;28;20052;-72
2021/12/15 05:37:56;;;;;;;14.82;10.13;;;7.10;99.90;;;;;;2095892;28;20534;-71
2021/12/15 05:38:57;;;;;;;17.33;10.23;;;7.10;99.90;;;;;;2096823;28;20097;-71
2021/12/15 05:39:59;;;;;;;16.85;11.05;;;7.10;99.90;;;;;;2097307;28;20036;-72
2021/12/15 05:41:00;;;;;;;17.05;10.68;;;7.10;99.90;;;;;;2100072;28;20499;-71
2021/12/15 05:42:01;;;;;;;17.45;10.32;;;7.10;99.90;;;;;;2098379;28;20039;-72
2021/12/15 05:43:03;;;;;;;15.48;10.05;;;7.10;99.90;;;;;;2099578;28;20451;-71
2021/12/15 05:44:05;;;;;;;16.10;10.52;;;7.10;99.90;;;;;;2097994;28;20036;-71
2021/12/15 05:45:07;;;;;;;16.67;10.65;;;7.10;99.90;;;;;;2098913;28;20027;-70
2021/12/15 05:46:07;;;;;;;16.15;10.43;;;7.10;99.90;;;;;;2097919;28;20068;-72
2021/12/15 05:47:08;;;;;;;16.80;10.63;;;7.10;99.90;;;;;;2099198;28;20017;-72
2021/12/15 05:48:12;;;;;;;15.70;10.45;;;7.10;99.90;;;;;;2097083;28;20506;-72
2021/12/15 05:49:13;;;;;;;15.30;9.85;;;7.10;99.90;;;;;;2097417;28;20431;-72
2021/12/15 05:50:14;;;;;;;14.77;9.85;;;7.10;99.90;;;;;;2097527;28;20115;-72
2021/12/15 05:51:15;;;;;;;15.40;9.85;;;7.10;99.90;;;;;;2097414;28;20055;-72
2021/12/15 05:52:16;;;;;;;15.65;10.25;;;7.10;99.90;;;;;;2097073;28;20021;-73
2021/12/15 05:53:17;;;;;;;14.82;9.70;;;7.10;99.90;;;;;;2096453;28;20037;-72
2021/12/15 05:54:19;;;;;;;16.08;10.27;;;7.10;99.90;;;;;;2096658;28;20673;-72